createdAt,value
2019-03-23T00:00:28.931Z,40.77
2019-03-23T00:04:59.859Z,39.57
2019-03-23T00:09:35.692Z,38.40
2019-03-23T00:14:11.076Z,41.00
2019-03-23T00:18:47.870Z,48.77
2019-03-23T00:23:19.775Z,46.53
2019-03-23T00:27:52.635Z,56.07
2019-03-23T00:32:28.339Z,47.30
2019-03-23T00:37:00.064Z,48.20
2019-03-23T00:41:34.991Z,44.83
2019-03-23T00:46:10.877Z,46.07
2019-03-23T00:50:47.099Z,46.63
2019-03-23T00:55:17.961Z,51.80
2019-03-23T00:59:50.305Z,40.60
2019-03-23T01:04:24.320Z,47.97
2019-03-23T01:08:59.128Z,45.40
2019-03-23T01:13:52.535Z,47.10
2019-03-23T01:18:31.208Z,43.67
2019-03-23T01:23:04.351Z,48.30
2019-03-23T01:27:38.868Z,41.97
2019-03-23T01:32:12.350Z,50.83
2019-03-23T01:41:17.372Z,43.43
2019-03-23T01:46:10.491Z,41.00
2019-03-23T01:50:47.030Z,45.63
2019-03-23T01:55:18.470Z,50.07
2019-03-23T01:59:54.834Z,44.40
2019-03-23T02:04:28.000Z,50.47
2019-03-23T02:13:34.989Z,55.13
2019-03-23T02:18:07.940Z,53.50
2019-03-23T02:22:40.110Z,54.13
2019-03-23T02:27:18.217Z,56.87
2019-03-23T02:31:50.019Z,60.97
2019-03-23T02:36:25.203Z,69.60
2019-03-23T02:40:58.510Z,69.20
2019-03-23T02:45:30.505Z,65.03
2019-03-23T02:50:05.281Z,69.50
2019-03-23T02:54:38.992Z,68.33
2019-03-23T02:59:09.480Z,72.37
2019-03-23T03:03:49.631Z,64.10
2019-03-23T03:08:21.545Z,63.00
2019-03-23T03:12:58.326Z,70.37
2019-03-23T03:17:32.088Z,68.30
2019-03-23T03:22:06.344Z,71.57
2019-03-23T03:26:42.602Z,69.50
2019-03-23T03:31:15.326Z,68.27
2019-03-23T03:35:29.280Z,71.87
2019-03-23T03:40:00.677Z,70.57
2019-03-23T03:44:26.780Z,72.23
2019-03-23T03:49:11.828Z,67.63
2019-03-23T03:53:28.163Z,59.83
2019-03-23T03:57:47.919Z,60.20
2019-03-23T04:02:21.135Z,72.07
2019-03-23T04:06:54.493Z,76.23
2019-03-23T04:11:22.008Z,65.83
2019-03-23T04:15:35.626Z,67.23
2019-03-23T04:20:01.092Z,62.17
2019-03-23T04:24:20.984Z,69.07
2019-03-23T04:28:41.252Z,65.23
2019-03-23T04:33:08.028Z,63.10
2019-03-23T04:37:34.597Z,72.50
2019-03-23T04:42:01.244Z,65.90
2019-03-23T04:46:15.001Z,60.13
2019-03-23T04:50:42.356Z,59.67
2019-03-23T04:55:01.922Z,54.43
2019-03-23T04:59:28.089Z,58.33
2019-03-23T05:03:48.914Z,56.60
2019-03-23T05:08:19.312Z,57.07
2019-03-23T05:12:39.327Z,60.97
2019-03-23T05:17:05.677Z,60.50
2019-03-23T05:21:38.165Z,60.63
2019-03-23T05:26:10.839Z,57.80
2019-03-23T05:30:36.812Z,53.53
2019-03-23T05:34:56.526Z,59.17
2019-03-23T05:39:16.047Z,53.73
2019-03-23T05:43:28.888Z,49.77
2019-03-23T05:47:55.896Z,47.73
2019-03-23T05:52:22.348Z,48.83
2019-03-23T05:56:55.639Z,42.17
2019-03-23T06:01:29.666Z,42.53
2019-03-23T06:06:03.405Z,51.53
2019-03-23T06:10:38.356Z,43.60
2019-03-23T06:15:04.419Z,39.70
2019-03-23T06:19:24.805Z,36.77
2019-03-23T06:23:57.615Z,38.43
2019-03-23T06:28:30.060Z,30.50
2019-03-23T06:37:54.461Z,40.87
2019-03-23T06:42:27.884Z,38.40
2019-03-23T06:46:46.947Z,44.43
2019-03-23T06:56:04.113Z,48.37
2019-03-23T07:00:45.467Z,51.77
2019-03-23T07:05:12.269Z,47.97
2019-03-23T07:09:47.123Z,51.37
2019-03-23T07:14:22.274Z,42.83
2019-03-23T07:18:59.100Z,41.00
2019-03-23T07:23:29.161Z,38.90
2019-03-23T07:28:01.363Z,36.90
2019-03-23T07:32:36.093Z,30.63
2019-03-23T07:37:07.058Z,29.50
2019-03-23T07:41:40.108Z,20.90
2019-03-23T07:46:16.847Z,27.03
2019-03-23T07:50:50.401Z,26.80
2019-03-23T07:55:29.731Z,26.13
2019-03-23T08:00:04.389Z,28.33
2019-03-23T08:04:37.004Z,23.47
2019-03-23T08:09:19.815Z,26.30
2019-03-23T08:13:48.101Z,22.63
2019-03-23T08:18:24.873Z,23.40
2019-03-23T08:22:57.485Z,20.97
2019-03-23T08:27:29.906Z,18.73
2019-03-23T08:32:02.030Z,20.80
2019-03-23T08:41:07.677Z,15.57
2019-03-23T08:45:40.385Z,18.63
2019-03-23T08:50:15.939Z,16.67
2019-03-23T08:54:48.301Z,20.23
2019-03-23T08:59:23.763Z,26.07
2019-03-23T09:03:57.677Z,17.17
2019-03-23T09:08:29.750Z,18.43
2019-03-23T09:13:07.374Z,19.50
2019-03-23T09:17:42.338Z,18.40
2019-03-23T09:22:17.331Z,14.73
2019-03-23T09:26:49.476Z,20.60
2019-03-23T09:31:25.507Z,18.47
2019-03-23T09:35:58.235Z,15.83
2019-03-23T09:40:29.542Z,20.60
2019-03-23T09:45:05.019Z,18.17
2019-03-23T09:49:39.207Z,18.80
2019-03-23T09:54:14.111Z,20.17
2019-03-23T09:58:47.830Z,16.73
2019-03-23T10:03:20.295Z,19.93
2019-03-23T10:07:56.526Z,20.93
2019-03-23T10:12:27.061Z,17.13
2019-03-23T10:16:59.989Z,18.93
2019-03-23T10:21:38.230Z,20.67
2019-03-23T10:26:09.351Z,12.87
2019-03-23T10:30:41.936Z,18.40
2019-03-23T10:35:19.039Z,17.10
2019-03-23T10:44:26.516Z,14.67
2019-03-23T10:48:59.362Z,16.63
2019-03-23T10:53:37.591Z,16.80
2019-03-23T10:58:10.180Z,20.73
2019-03-23T11:02:42.897Z,15.00
2019-03-23T11:07:17.587Z,20.83
2019-03-23T11:11:50.518Z,16.83
2019-03-23T11:16:26.920Z,22.90
2019-03-23T11:21:21.644Z,22.80
2019-03-23T11:30:28.751Z,22.33
2019-03-23T11:35:02.005Z,27.93
2019-03-23T11:39:36.887Z,28.07
2019-03-23T11:44:10.327Z,23.30
2019-03-23T11:48:45.101Z,26.83
2019-03-23T11:53:18.794Z,22.20
2019-03-23T11:57:54.212Z,22.10
2019-03-23T12:02:27.309Z,21.33
2019-03-23T12:07:00.700Z,30.07
2019-03-23T12:11:37.471Z,26.43
2019-03-23T12:21:08.250Z,20.53
2019-03-23T12:25:47.113Z,20.17
2019-03-23T12:30:19.612Z,23.43
2019-03-23T12:34:54.215Z,20.63
2019-03-23T12:39:27.164Z,22.60
2019-03-23T12:44:19.149Z,23.47
2019-03-23T12:48:49.241Z,22.77
2019-03-23T12:53:28.819Z,21.20
2019-03-23T12:58:05.671Z,20.20
2019-03-23T13:02:39.101Z,18.40
2019-03-23T13:07:14.035Z,20.13
2019-03-23T13:11:47.575Z,23.30
2019-03-23T13:16:19.350Z,21.77
2019-03-23T13:20:49.573Z,22.10
2019-03-23T13:25:25.787Z,18.70
2019-03-23T13:29:59.256Z,22.50
2019-03-23T13:34:29.959Z,22.40
2019-03-23T13:39:05.588Z,22.10
2019-03-23T13:43:37.723Z,18.00
2019-03-23T13:48:10.223Z,22.00
2019-03-23T13:52:46.529Z,24.67
2019-03-23T13:57:39.683Z,19.33
2019-03-23T14:02:14.015Z,23.27
2019-03-23T14:06:47.910Z,27.13
2019-03-23T14:11:24.867Z,31.33
2019-03-23T14:15:58.023Z,21.30
2019-03-23T14:20:29.918Z,26.57
2019-03-23T14:29:47.999Z,22.53
2019-03-23T14:34:22.368Z,23.23
2019-03-23T14:38:58.776Z,20.00
2019-03-23T14:43:34.247Z,25.07
2019-03-23T14:48:07.576Z,22.13
2019-03-23T14:52:40.173Z,21.40
2019-03-23T14:57:13.873Z,21.77
2019-03-23T15:01:49.484Z,22.93
2019-03-23T15:06:24.060Z,19.07
2019-03-23T15:11:00.730Z,19.47
2019-03-23T15:15:34.243Z,20.63
2019-03-23T15:20:09.457Z,16.90
2019-03-23T15:24:43.297Z,15.40
2019-03-23T15:29:18.529Z,15.20
2019-03-23T15:33:56.545Z,16.30
2019-03-23T15:38:28.847Z,19.90
2019-03-23T15:43:06.458Z,16.47
2019-03-23T15:47:42.117Z,18.37
2019-03-23T15:52:17.636Z,19.20
2019-03-23T15:56:50.030Z,19.97
2019-03-23T16:01:23.307Z,18.53
2019-03-23T16:05:57.713Z,21.80
2019-03-23T16:10:29.164Z,22.33
2019-03-23T16:15:06.446Z,20.37
2019-03-23T16:19:40.004Z,22.80
2019-03-23T16:24:14.321Z,20.80
2019-03-23T16:28:50.573Z,21.57
2019-03-23T16:38:08.860Z,21.83
2019-03-23T16:42:45.662Z,22.00
2019-03-23T16:47:18.231Z,27.00
2019-03-23T16:51:49.343Z,22.03
2019-03-23T16:56:25.661Z,30.47
2019-03-23T17:01:00.767Z,34.40
2019-03-23T17:05:36.346Z,29.63
2019-03-23T17:10:07.383Z,41.23
2019-03-23T17:14:41.953Z,36.23
2019-03-23T17:19:14.412Z,34.43
2019-03-23T17:23:47.056Z,41.53
2019-03-23T17:28:41.518Z,45.43
2019-03-23T17:33:17.042Z,52.30
2019-03-23T17:37:50.056Z,54.73
2019-03-23T17:42:22.482Z,61.27
2019-03-23T17:51:25.403Z,56.10
2019-03-23T17:55:59.291Z,57.30
2019-03-23T18:00:30.970Z,58.03
2019-03-23T18:05:06.199Z,57.17
2019-03-23T18:10:01.518Z,64.67
2019-03-23T18:14:38.113Z,74.33
2019-03-23T18:19:09.520Z,71.73
2019-03-23T18:23:45.429Z,78.67
2019-03-23T18:28:20.459Z,76.17
2019-03-23T18:32:54.588Z,78.33
2019-03-23T18:37:27.901Z,77.20
2019-03-23T18:42:40.518Z,89.03
2019-03-23T18:47:14.081Z,89.07
2019-03-23T18:51:47.268Z,97.70
2019-03-23T18:56:20.956Z,90.43
2019-03-23T19:01:04.456Z,107.47
2019-03-23T19:05:37.554Z,92.90
2019-03-23T19:10:10.320Z,88.80
2019-03-23T19:14:46.358Z,86.17
2019-03-23T19:19:19.374Z,96.27
2019-03-23T19:28:50.586Z,92.03
2019-03-23T19:33:25.120Z,85.53
2019-03-23T19:37:58.094Z,95.93
2019-03-23T19:42:29.911Z,102.33
2019-03-23T19:47:05.229Z,91.40
2019-03-23T19:51:38.451Z,85.60
2019-03-23T19:56:10.131Z,91.87
2019-03-23T20:00:44.281Z,89.70
2019-03-23T20:05:20.015Z,90.77
2019-03-23T20:09:54.219Z,98.97
2019-03-23T20:14:27.162Z,96.97
2019-03-23T20:19:22.993Z,104.57
2019-03-23T20:23:56.235Z,98.00
2019-03-23T20:28:35.919Z,99.20
2019-03-23T20:33:19.003Z,99.23
2019-03-23T20:38:04.907Z,99.70
2019-03-23T20:42:39.447Z,98.17
2019-03-23T20:47:12.542Z,102.53
2019-03-23T20:51:45.342Z,100.80
2019-03-23T20:56:19.002Z,100.33
2019-03-23T21:00:52.428Z,104.27
2019-03-23T21:05:33.754Z,101.00
2019-03-23T21:10:05.617Z,104.03
2019-03-23T21:14:42.797Z,97.20
2019-03-23T21:19:16.090Z,95.97
2019-03-23T21:23:52.126Z,97.23
2019-03-23T21:28:45.665Z,87.77
2019-03-23T21:33:19.169Z,97.00
2019-03-23T21:37:51.930Z,92.17
2019-03-23T21:42:44.659Z,90.50
2019-03-23T21:47:19.090Z,104.63
2019-03-23T21:51:55.023Z,102.50
2019-03-23T21:56:29.565Z,108.30
2019-03-23T22:01:05.015Z,111.27
2019-03-23T22:05:39.459Z,113.83
2019-03-23T22:10:12.057Z,118.87
2019-03-23T22:15:05.745Z,114.07
2019-03-23T22:19:39.301Z,90.97
2019-03-23T22:24:13.254Z,111.10
2019-03-23T22:28:47.171Z,127.97
2019-03-23T22:33:22.564Z,109.97
2019-03-23T22:37:55.405Z,128.77
2019-03-23T22:42:32.680Z,113.77
2019-03-23T22:47:04.762Z,106.03
2019-03-23T22:51:39.392Z,105.20
2019-03-23T22:56:15.548Z,90.77
2019-03-23T23:01:06.646Z,92.00
2019-03-23T23:05:39.492Z,96.20
2019-03-23T23:10:13.984Z,77.43
2019-03-23T23:14:50.026Z,64.70
2019-03-23T23:19:22.509Z,70.87
2019-03-23T23:23:54.953Z,58.00
2019-03-23T23:28:29.924Z,72.73
2019-03-23T23:33:06.905Z,61.13
2019-03-23T23:37:42.893Z,60.13
2019-03-23T23:42:15.219Z,56.73
2019-03-23T23:46:47.547Z,46.40
2019-03-23T23:56:14.280Z,37.93
